PWSweather.com
Personal Weather Stations
Station Observations
01979
Ravne Pri CerknemSI 5282

Ravne Pri CerknemSI 5282

Lat: 46.1213916, Lon: 13.952774299999987

Elevation: 2244.094488

Station Type: Techo Line WS2307

www.vremenska.postaja.andre.si/

High Low Average
Temperature 46.4°F8.0°C 30.4°F-0.9°C 37.6°F3.1°C
Dew Point 44.3°F6.8°C 30.4°F-0.9°C 36.8°F2.7°C
Winds 13.7 mph 22.0 kmh Calm Calm 3.0 mph E4.8 kmh E
Wind Gusts 17.2 mph27.7 kmh -- 5.0 mph8.0 kmh
Humidity 100% 91% 97%
Pressure 29.70 in1005.8 mb 29.53 in1000.0 mb -
Precipitation 0.80 in20.3 mm - -
Hour Temp Dew Point Humidity Winds Wind Gusts Pressure Precip Precip Rate Daily Precip Total
12:00 AM 30.4°F-0.9°C 30.4°F-0.9°C 100% Calm Calm -- 29.71 in1006.1 mb 0.00 in0.0 mm 0.00 in0.0 mm 0.00 in0.0 mm
12:10 AM 30.0°F-1.1°C 30.0°F-1.1°C 100% Calm Calm -- 29.71 in1006.1 mb 0.00 in0.0 mm 0.00 in0.0 mm 0.00 in0.0 mm
12:20 AM 30.4°F-0.9°C 30.4°F-0.9°C 100% Calm Calm -- 29.70 in1005.8 mb 0.00 in0.0 mm 0.00 in0.0 mm 0.00 in0.0 mm
12:30 AM 30.6°F-0.8°C 30.6°F-0.8°C 100% Calm Calm -- 29.70 in1005.8 mb 0.00 in0.0 mm 0.00 in0.0 mm 0.00 in0.0 mm
12:40 AM 30.4°F-0.9°C 30.4°F-0.9°C 100% Calm Calm -- 29.70 in1005.8 mb 0.00 in0.0 mm 0.00 in0.0 mm 0.00 in0.0 mm
12:50 AM 30.4°F-0.9°C 30.4°F-0.9°C 100% Calm Calm -- 29.70 in1005.8 mb 0.00 in0.0 mm 0.00 in0.0 mm 0.00 in0.0 mm
01:00 AM 30.4°F-0.9°C 30.4°F-0.9°C 100% Calm Calm -- 29.70 in1005.8 mb 0.00 in0.0 mm 0.00 in0.0 mm 0.00 in0.0 mm
01:10 AM 30.7°F-0.7°C 30.7°F-0.7°C 100% 2.3 mph NNW3.7 kmh NNW 5.4 mph8.7 kmh 29.70 in1005.8 mb 0.00 in0.0 mm 0.00 in0.0 mm 0.00 in0.0 mm
01:20 AM 31.1°F-0.5°C 31.1°F-0.5°C 100% 2.9 mph NNW4.7 kmh NNW 4.3 mph6.9 kmh 29.70 in1005.8 mb 0.00 in0.0 mm 0.00 in0.0 mm 0.00 in0.0 mm
01:30 AM 31.3°F-0.4°C 31.3°F-0.4°C 100% 0.1 mph NNW0.2 kmh NNW 1.6 mph2.6 kmh 29.70 in1005.8 mb 0.00 in0.0 mm 0.00 in0.0 mm 0.00 in0.0 mm
01:40 AM 31.3°F-0.4°C 31.3°F-0.4°C 100% Calm Calm -- 29.69 in1005.4 mb 0.00 in0.0 mm 0.00 in0.0 mm 0.00 in0.0 mm
01:50 AM 31.1°F-0.5°C 31.1°F-0.5°C 100% Calm Calm -- 29.69 in1005.4 mb 0.00 in0.0 mm 0.00 in0.0 mm 0.00 in0.0 mm
02:00 AM 30.9°F-0.6°C 30.9°F-0.6°C 100% Calm Calm -- 29.69 in1005.4 mb 0.00 in0.0 mm 0.00 in0.0 mm 0.00 in0.0 mm
02:02 AM 31.1°F-0.5°C 31.1°F-0.5°C 100% Calm Calm -- 29.69 in1005.4 mb 0.00 in0.0 mm 0.00 in0.0 mm 0.00 in0.0 mm
02:10 AM 31.1°F-0.5°C 31.1°F-0.5°C 100% Calm Calm -- 29.68 in1005.1 mb 0.00 in0.0 mm 0.00 in0.0 mm 0.00 in0.0 mm
02:20 AM 30.9°F-0.6°C 30.9°F-0.6°C 100% Calm Calm -- 29.69 in1005.4 mb 0.00 in0.0 mm 0.00 in0.0 mm 0.00 in0.0 mm
02:30 AM 31.1°F-0.5°C 31.1°F-0.5°C 100% Calm Calm -- 29.68 in1005.1 mb 0.00 in0.0 mm 0.00 in0.0 mm 0.00 in0.0 mm
02:40 AM 30.9°F-0.6°C 30.9°F-0.6°C 100% Calm Calm -- 29.68 in1005.1 mb 0.00 in0.0 mm 0.00 in0.0 mm 0.00 in0.0 mm
02:50 AM 30.9°F-0.6°C 30.9°F-0.6°C 100% Calm Calm -- 29.68 in1005.1 mb 0.00 in0.0 mm 0.00 in0.0 mm 0.00 in0.0 mm
03:00 AM 30.7°F-0.7°C 30.7°F-0.7°C 100% Calm Calm -- 29.68 in1005.1 mb 0.00 in0.0 mm 0.00 in0.0 mm 0.00 in0.0 mm
03:10 AM 30.7°F-0.7°C 30.7°F-0.7°C 100% Calm Calm -- 29.68 in1005.1 mb 0.00 in0.0 mm 0.00 in0.0 mm 0.00 in0.0 mm
03:20 AM 30.7°F-0.7°C 30.7°F-0.7°C 100% Calm Calm -- 29.68 in1005.1 mb 0.00 in0.0 mm 0.00 in0.0 mm 0.00 in0.0 mm
03:30 AM 30.7°F-0.7°C 30.7°F-0.7°C 100% Calm Calm -- 29.68 in1005.1 mb 0.00 in0.0 mm 0.00 in0.0 mm 0.00 in0.0 mm
03:40 AM 30.6°F-0.8°C 30.6°F-0.8°C 100% Calm Calm -- 29.68 in1005.1 mb 0.00 in0.0 mm 0.00 in0.0 mm 0.00 in0.0 mm
03:50 AM 30.7°F-0.7°C 30.7°F-0.7°C 100% Calm Calm -- 29.68 in1005.1 mb 0.00 in0.0 mm 0.00 in0.0 mm 0.00 in0.0 mm
04:00 AM 30.6°F-0.8°C 30.6°F-0.8°C 100% Calm Calm -- 29.68 in1005.1 mb 0.00 in0.0 mm 0.00 in0.0 mm 0.00 in0.0 mm
04:10 AM 30.6°F-0.8°C 30.6°F-0.8°C 100% Calm Calm -- 29.67 in1004.7 mb 0.00 in0.0 mm 0.00 in0.0 mm 0.00 in0.0 mm
04:20 AM 30.4°F-0.9°C 30.4°F-0.9°C 100% Calm Calm -- 29.67 in1004.7 mb 0.00 in0.0 mm 0.00 in0.0 mm 0.00 in0.0 mm
04:30 AM 30.7°F-0.7°C 30.7°F-0.7°C 100% Calm Calm -- 29.67 in1004.7 mb 0.00 in0.0 mm 0.00 in0.0 mm 0.00 in0.0 mm
04:40 AM 30.7°F-0.7°C 30.7°F-0.7°C 100% Calm Calm -- 29.68 in1005.1 mb 0.00 in0.0 mm 0.00 in0.0 mm 0.00 in0.0 mm
04:50 AM 30.7°F-0.7°C 30.7°F-0.7°C 100% Calm Calm -- 29.67 in1004.7 mb 0.00 in0.0 mm 0.00 in0.0 mm 0.00 in0.0 mm
05:00 AM 30.4°F-0.9°C 30.4°F-0.9°C 100% Calm Calm -- 29.68 in1005.1 mb 0.00 in0.0 mm 0.00 in0.0 mm 0.00 in0.0 mm
05:10 AM 30.7°F-0.7°C 30.7°F-0.7°C 100% Calm Calm -- 29.67 in1004.7 mb 0.00 in0.0 mm 0.00 in0.0 mm 0.00 in0.0 mm
05:20 AM 30.6°F-0.8°C 30.6°F-0.8°C 100% Calm Calm -- 29.67 in1004.7 mb 0.00 in0.0 mm 0.00 in0.0 mm 0.00 in0.0 mm
05:30 AM 30.4°F-0.9°C 30.4°F-0.9°C 100% Calm Calm -- 29.67 in1004.7 mb 0.00 in0.0 mm 0.00 in0.0 mm 0.00 in0.0 mm
05:40 AM 30.6°F-0.8°C 30.6°F-0.8°C 100% Calm Calm -- 29.67 in1004.7 mb 0.00 in0.0 mm 0.00 in0.0 mm 0.00 in0.0 mm
05:50 AM 30.7°F-0.7°C 30.7°F-0.7°C 100% Calm Calm -- 29.67 in1004.7 mb 0.00 in0.0 mm 0.00 in0.0 mm 0.00 in0.0 mm
06:00 AM 30.6°F-0.8°C 30.6°F-0.8°C 100% Calm Calm -- 29.66 in1004.4 mb 0.00 in0.0 mm 0.00 in0.0 mm 0.00 in0.0 mm
06:10 AM 30.6°F-0.8°C 30.6°F-0.8°C 100% Calm Calm -- 29.66 in1004.4 mb 0.00 in0.0 mm 0.00 in0.0 mm 0.00 in0.0 mm
06:20 AM 30.6°F-0.8°C 30.6°F-0.8°C 100% Calm Calm -- 29.66 in1004.4 mb 0.00 in0.0 mm 0.00 in0.0 mm 0.00 in0.0 mm
06:30 AM 30.7°F-0.7°C 30.7°F-0.7°C 100% Calm Calm -- 29.66 in1004.4 mb 0.00 in0.0 mm 0.00 in0.0 mm 0.00 in0.0 mm
06:40 AM 30.9°F-0.6°C 30.9°F-0.6°C 100% Calm Calm -- 29.65 in1004.1 mb 0.00 in0.0 mm 0.00 in0.0 mm 0.00 in0.0 mm
06:50 AM 31.1°F-0.5°C 31.1°F-0.5°C 100% Calm Calm -- 29.65 in1004.1 mb 0.00 in0.0 mm 0.00 in0.0 mm 0.00 in0.0 mm
07:00 AM 31.3°F-0.4°C 31.3°F-0.4°C 100% Calm Calm -- 29.65 in1004.1 mb 0.00 in0.0 mm 0.00 in0.0 mm 0.00 in0.0 mm
07:10 AM 31.3°F-0.4°C 31.3°F-0.4°C 100% Calm Calm -- 29.64 in1003.7 mb 0.00 in0.0 mm 0.00 in0.0 mm 0.00 in0.0 mm
07:20 AM 31.1°F-0.5°C 31.1°F-0.5°C 100% Calm Calm -- 29.65 in1004.1 mb 0.00 in0.0 mm 0.00 in0.0 mm 0.00 in0.0 mm
07:30 AM 31.6°F-0.2°C 31.6°F-0.2°C 100% Calm Calm -- 29.65 in1004.1 mb 0.00 in0.0 mm 0.00 in0.0 mm 0.00 in0.0 mm
07:40 AM 31.6°F-0.2°C 31.6°F-0.2°C 100% Calm Calm -- 29.65 in1004.1 mb 0.00 in0.0 mm 0.00 in0.0 mm 0.00 in0.0 mm
07:50 AM 31.8°F-0.1°C 31.8°F-0.1°C 100% Calm Calm -- 29.65 in1004.1 mb 0.00 in0.0 mm 0.00 in0.0 mm 0.00 in0.0 mm
08:00 AM 31.8°F-0.1°C 31.8°F-0.1°C 100% Calm Calm -- 29.65 in1004.1 mb 0.00 in0.0 mm 0.00 in0.0 mm 0.00 in0.0 mm
08:10 AM 31.8°F-0.1°C 31.8°F-0.1°C 100% Calm Calm -- 29.66 in1004.4 mb 0.00 in0.0 mm 0.00 in0.0 mm 0.00 in0.0 mm
08:20 AM 32.0°F0.0°C 32.0°F0.0°C 100% Calm Calm -- 29.65 in1004.1 mb 0.00 in0.0 mm 0.00 in0.0 mm 0.00 in0.0 mm
08:30 AM 32.2°F0.1°C 32.2°F0.1°C 100% Calm Calm -- 29.65 in1004.1 mb 0.00 in0.0 mm 0.00 in0.0 mm 0.00 in0.0 mm
08:40 AM 32.2°F0.1°C 32.2°F0.1°C 100% Calm Calm -- 29.65 in1004.1 mb 0.00 in0.0 mm 0.00 in0.0 mm 0.00 in0.0 mm
08:50 AM 32.4°F0.2°C 32.4°F0.2°C 100% Calm Calm -- 29.65 in1004.1 mb 0.00 in0.0 mm 0.00 in0.0 mm 0.00 in0.0 mm
09:00 AM 32.5°F0.3°C 32.5°F0.3°C 100% Calm Calm -- 29.66 in1004.4 mb 0.00 in0.0 mm 0.00 in0.0 mm 0.00 in0.0 mm
09:10 AM 32.7°F0.4°C 32.7°F0.4°C 100% Calm Calm -- 29.65 in1004.1 mb 0.00 in0.0 mm 0.00 in0.0 mm 0.00 in0.0 mm
09:20 AM 32.7°F0.4°C 32.7°F0.4°C 100% Calm Calm -- 29.65 in1004.1 mb 0.00 in0.0 mm 0.00 in0.0 mm 0.00 in0.0 mm
09:30 AM 32.9°F0.5°C 32.9°F0.5°C 100% Calm Calm -- 29.65 in1004.1 mb 0.00 in0.0 mm 0.00 in0.0 mm 0.00 in0.0 mm
09:40 AM 33.1°F0.6°C 33.1°F0.6°C 100% Calm Calm -- 29.64 in1003.7 mb 0.00 in0.0 mm 0.00 in0.0 mm 0.00 in0.0 mm
09:50 AM 33.4°F0.8°C 33.4°F0.8°C 100% Calm Calm -- 29.65 in1004.1 mb 0.00 in0.0 mm 0.00 in0.0 mm 0.00 in0.0 mm
10:00 AM 33.4°F0.8°C 33.4°F0.8°C 100% Calm Calm -- 29.64 in1003.7 mb 0.02 in0.5 mm 0.02 in0.5 mm 0.02 in0.5 mm
10:10 AM 33.6°F0.9°C 33.6°F0.9°C 100% Calm Calm -- 29.64 in1003.7 mb 0.02 in0.5 mm 0.00 in0.0 mm 0.02 in0.5 mm
10:20 AM 33.6°F0.9°C 33.6°F0.9°C 100% Calm Calm -- 29.64 in1003.7 mb 0.02 in0.5 mm 0.00 in0.0 mm 0.02 in0.5 mm
10:30 AM 33.6°F0.9°C 32.6°F0.3°C 96% Calm Calm -- 29.63 in1003.4 mb 0.02 in0.5 mm 0.00 in0.0 mm 0.02 in0.5 mm
10:40 AM 33.6°F0.9°C 33.6°F0.9°C 100% 1.7 mph SE2.7 kmh SE 4.7 mph7.6 kmh 29.63 in1003.4 mb 0.02 in0.5 mm 0.00 in0.0 mm 0.02 in0.5 mm
10:50 AM 34.2°F1.2°C 33.1°F0.6°C 96% 0.4 mph E0.6 kmh E 2.0 mph3.2 kmh 29.64 in1003.7 mb 0.02 in0.5 mm 0.00 in0.0 mm 0.02 in0.5 mm
11:00 AM 34.0°F1.1°C 33.0°F0.6°C 96% 3.4 mph ESE5.5 kmh ESE 6.3 mph10.1 kmh 29.64 in1003.7 mb 0.00 in0.0 mm 0.00 in0.0 mm 0.02 in0.5 mm
11:10 AM 34.0°F1.1°C 33.0°F0.6°C 96% 7.4 mph ESE11.9 kmh ESE 11.6 mph18.7 kmh 29.63 in1003.4 mb 0.00 in0.0 mm 0.00 in0.0 mm 0.02 in0.5 mm
11:20 AM 34.3°F1.3°C 33.3°F0.7°C 96% 9.5 mph SE15.3 kmh SE 11.6 mph18.7 kmh 29.63 in1003.4 mb 0.00 in0.0 mm 0.00 in0.0 mm 0.02 in0.5 mm
11:30 AM 34.5°F1.4°C 33.5°F0.8°C 96% 5.4 mph E8.7 kmh E 8.1 mph13.0 kmh 29.63 in1003.4 mb 0.00 in0.0 mm 0.00 in0.0 mm 0.02 in0.5 mm
11:40 AM 34.9°F1.6°C 33.9°F1.1°C 96% 1.0 mph ESE1.6 kmh ESE 4.5 mph7.2 kmh 29.63 in1003.4 mb 0.00 in0.0 mm 0.00 in0.0 mm 0.02 in0.5 mm
11:50 AM 35.4°F1.9°C 34.4°F1.3°C 96% 2.6 mph ESE4.2 kmh ESE 4.3 mph6.9 kmh 29.62 in1003.0 mb 0.00 in0.0 mm 0.00 in0.0 mm 0.02 in0.5 mm
12:00 PM 35.4°F1.9°C 34.4°F1.3°C 96% 4.9 mph E7.9 kmh E 7.6 mph12.2 kmh 29.61 in1002.7 mb 0.00 in0.0 mm 0.00 in0.0 mm 0.02 in0.5 mm
12:10 PM 35.8°F2.1°C 34.8°F1.6°C 96% 5.9 mph E9.5 kmh E 7.6 mph12.2 kmh 29.61 in1002.7 mb 0.00 in0.0 mm 0.00 in0.0 mm 0.02 in0.5 mm
12:20 PM 36.0°F2.2°C 34.9°F1.6°C 96% 6.3 mph ESE10.1 kmh ESE 8.5 mph13.7 kmh 29.61 in1002.7 mb 0.00 in0.0 mm 0.00 in0.0 mm 0.02 in0.5 mm
12:30 PM 36.0°F2.2°C 34.9°F1.6°C 96% 6.8 mph ESE10.9 kmh ESE 11.0 mph17.7 kmh 29.60 in1002.4 mb 0.00 in0.0 mm 0.00 in0.0 mm 0.02 in0.5 mm
12:40 PM 36.1°F2.3°C 35.1°F1.7°C 96% 5.8 mph ESE9.3 kmh ESE 8.9 mph14.3 kmh 29.61 in1002.7 mb 0.00 in0.0 mm 0.00 in0.0 mm 0.02 in0.5 mm
12:50 PM 37.0°F2.8°C 36.3°F2.4°C 97% 10.3 mph E16.6 kmh E 11.6 mph18.7 kmh 29.61 in1002.7 mb 0.00 in0.0 mm 0.00 in0.0 mm 0.02 in0.5 mm
01:00 PM 37.4°F3.0°C 36.4°F2.4°C 96% 8.6 mph ESE13.8 kmh ESE 10.7 mph17.2 kmh 29.60 in1002.4 mb 0.02 in0.5 mm 0.02 in0.5 mm 0.04 in1.0 mm
01:10 PM 37.8°F3.2°C 36.7°F2.6°C 96% 9.1 mph E14.6 kmh E 11.0 mph17.7 kmh 29.60 in1002.4 mb 0.02 in0.5 mm 0.00 in0.0 mm 0.04 in1.0 mm
01:20 PM 37.6°F3.1°C 36.5°F2.5°C 96% 8.9 mph ESE14.3 kmh ESE 11.0 mph17.7 kmh 29.60 in1002.4 mb 0.02 in0.5 mm 0.00 in0.0 mm 0.04 in1.0 mm
01:30 PM 38.1°F3.4°C 37.1°F2.8°C 96% 8.3 mph E13.4 kmh E 10.5 mph16.9 kmh 29.60 in1002.4 mb 0.06 in1.5 mm 0.24 in6.1 mm 0.08 in2.0 mm
01:40 PM 38.5°F3.6°C 37.4°F3.0°C 96% 8.9 mph E14.3 kmh E 12.1 mph19.5 kmh 29.60 in1002.4 mb 0.08 in2.0 mm 0.12 in3.0 mm 0.10 in2.5 mm
01:50 PM 38.5°F3.6°C 37.4°F3.0°C 96% 8.1 mph ESE13.0 kmh ESE 11.6 mph18.7 kmh 29.59 in1002.0 mb 0.08 in2.0 mm 0.00 in0.0 mm 0.10 in2.5 mm
02:00 PM 38.8°F3.8°C 37.8°F3.2°C 96% 9.0 mph ESE14.5 kmh ESE 11.6 mph18.7 kmh 29.59 in1002.0 mb 0.06 in1.5 mm 0.00 in0.0 mm 0.10 in2.5 mm
02:10 PM 39.0°F3.9°C 38.0°F3.3°C 96% 9.6 mph ESE15.4 kmh ESE 10.5 mph16.9 kmh 29.59 in1002.0 mb 0.08 in2.0 mm 0.12 in3.0 mm 0.12 in3.0 mm
02:20 PM 39.0°F3.9°C 38.0°F3.3°C 96% 5.0 mph ESE8.0 kmh ESE 8.3 mph13.4 kmh 29.59 in1002.0 mb 0.10 in2.5 mm 0.12 in3.0 mm 0.14 in3.6 mm
02:30 PM 40.3°F4.6°C 39.2°F4.0°C 96% 5.5 mph ESE8.9 kmh ESE 7.6 mph12.2 kmh 29.59 in1002.0 mb 0.06 in1.5 mm 0.00 in0.0 mm 0.14 in3.6 mm
02:40 PM 41.2°F5.1°C 40.1°F4.5°C 96% 2.8 mph SE4.5 kmh SE 7.4 mph11.9 kmh 29.59 in1002.0 mb 0.04 in1.0 mm 0.00 in0.0 mm 0.14 in3.6 mm
02:50 PM 41.5°F5.3°C 40.5°F4.7°C 96% 1.5 mph SE2.4 kmh SE 5.4 mph8.7 kmh 29.59 in1002.0 mb 0.06 in1.5 mm 0.12 in3.0 mm 0.16 in4.1 mm
03:00 PM 42.4°F5.8°C 41.4°F5.2°C 96% 6.2 mph SE10.0 kmh SE 8.7 mph14.0 kmh 29.59 in1002.0 mb 0.06 in1.5 mm 0.00 in0.0 mm 0.16 in4.1 mm
03:10 PM 42.3°F5.7°C 41.2°F5.1°C 96% 3.7 mph ESE6.0 kmh ESE 7.4 mph11.9 kmh 29.59 in1002.0 mb 0.04 in1.0 mm 0.00 in0.0 mm 0.16 in4.1 mm
03:20 PM 42.1°F5.6°C 41.0°F5.0°C 96% 4.2 mph SE6.8 kmh SE 6.7 mph10.8 kmh 29.58 in1001.7 mb 0.04 in1.0 mm 0.00 in0.0 mm 0.18 in4.6 mm
03:30 PM 42.1°F5.6°C 41.0°F5.0°C 96% 3.2 mph SE5.1 kmh SE 6.0 mph9.7 kmh 29.58 in1001.7 mb 0.06 in1.5 mm 0.12 in3.0 mm 0.20 in5.1 mm
03:40 PM 42.6°F5.9°C 41.6°F5.3°C 96% 2.8 mph SE4.5 kmh SE 5.4 mph8.7 kmh 29.58 in1001.7 mb 0.06 in1.5 mm 0.00 in0.0 mm 0.20 in5.1 mm
03:50 PM 43.3°F6.3°C 42.3°F5.7°C 96% 2.5 mph ESE4.0 kmh ESE 5.4 mph8.7 kmh 29.58 in1001.7 mb 0.04 in1.0 mm 0.00 in0.0 mm 0.20 in5.1 mm
04:00 PM 43.2°F6.2°C 41.8°F5.4°C 95% 2.6 mph ESE4.2 kmh ESE 5.6 mph9.0 kmh 29.57 in1001.4 mb 0.04 in1.0 mm 0.00 in0.0 mm 0.20 in5.1 mm
04:10 PM 43.5°F6.4°C 42.2°F5.7°C 95% 6.3 mph SE10.1 kmh SE 8.7 mph14.0 kmh 29.57 in1001.4 mb 0.06 in1.5 mm 0.12 in3.0 mm 0.22 in5.6 mm
04:20 PM 43.7°F6.5°C 42.6°F5.9°C 96% 5.9 mph SE9.5 kmh SE 7.4 mph11.9 kmh 29.57 in1001.4 mb 0.04 in1.0 mm 0.00 in0.0 mm 0.22 in5.6 mm
04:30 PM 43.5°F6.4°C 42.2°F5.7°C 95% 5.2 mph SE8.4 kmh SE 7.6 mph12.2 kmh 29.57 in1001.4 mb 0.04 in1.0 mm 0.00 in0.0 mm 0.24 in6.1 mm
04:40 PM 43.5°F6.4°C 42.2°F5.7°C 95% 6.2 mph SE10.0 kmh SE 9.2 mph14.8 kmh 29.57 in1001.4 mb 0.04 in1.0 mm 0.00 in0.0 mm 0.24 in6.1 mm
04:50 PM 44.1°F6.7°C 42.7°F5.9°C 95% 5.8 mph SE9.3 kmh SE 8.5 mph13.7 kmh 29.56 in1001.0 mb 0.06 in1.5 mm 0.12 in3.0 mm 0.27 in6.9 mm
05:00 PM 44.6°F7.0°C 43.3°F6.3°C 95% 9.2 mph SSE14.8 kmh SSE 12.3 mph19.8 kmh 29.56 in1001.0 mb 0.06 in1.5 mm 0.00 in0.0 mm 0.27 in6.9 mm
05:10 PM 44.2°F6.8°C 42.6°F5.9°C 94% 5.9 mph SE9.5 kmh SE 9.2 mph14.8 kmh 29.57 in1001.4 mb 0.06 in1.5 mm 0.00 in0.0 mm 0.29 in7.4 mm
05:20 PM 43.9°F6.6°C 42.3°F5.7°C 94% 6.2 mph ESE10.0 kmh ESE 7.2 mph11.6 kmh 29.56 in1001.0 mb 0.06 in1.5 mm 0.00 in0.0 mm 0.29 in7.4 mm
05:30 PM 44.4°F6.9°C 42.8°F6.0°C 94% 4.1 mph ESE6.6 kmh ESE 6.5 mph10.5 kmh 29.55 in1000.7 mb 0.06 in1.5 mm 0.00 in0.0 mm 0.31 in7.9 mm
05:40 PM 45.0°F7.2°C 43.3°F6.3°C 94% 5.2 mph SE8.4 kmh SE 7.8 mph12.6 kmh 29.55 in1000.7 mb 0.06 in1.5 mm 0.00 in0.0 mm 0.31 in7.9 mm
05:50 PM 44.4°F6.9°C 42.8°F6.0°C 94% 5.4 mph S8.7 kmh S 8.7 mph14.0 kmh 29.56 in1001.0 mb 0.06 in1.5 mm 0.00 in0.0 mm 0.33 in8.4 mm
06:00 PM 45.0°F7.2°C 43.3°F6.3°C 94% 5.6 mph SE9.0 kmh SE 8.3 mph13.4 kmh 29.55 in1000.7 mb 0.06 in1.5 mm 0.00 in0.0 mm 0.33 in8.4 mm
06:10 PM 44.8°F7.1°C 43.2°F6.2°C 94% 4.0 mph E6.4 kmh E 6.0 mph9.7 kmh 29.55 in1000.7 mb 0.06 in1.5 mm 0.00 in0.0 mm 0.35 in8.9 mm
06:20 PM 45.0°F7.2°C 43.3°F6.3°C 94% 5.1 mph SSE8.2 kmh SSE 6.7 mph10.8 kmh 29.55 in1000.7 mb 0.06 in1.5 mm 0.00 in0.0 mm 0.35 in8.9 mm
06:30 PM 45.1°F7.3°C 43.5°F6.4°C 94% 4.5 mph SSE7.2 kmh SSE 5.1 mph8.2 kmh 29.55 in1000.7 mb 0.06 in1.5 mm 0.00 in0.0 mm 0.37 in9.4 mm
06:40 PM 45.0°F7.2°C 43.3°F6.3°C 94% 3.9 mph SE6.3 kmh SE 6.3 mph10.1 kmh 29.55 in1000.7 mb 0.08 in2.0 mm 0.12 in3.0 mm 0.39 in9.9 mm
06:50 PM 45.1°F7.3°C 43.5°F6.4°C 94% 5.2 mph SSE8.4 kmh SSE 6.7 mph10.8 kmh 29.55 in1000.7 mb 0.06 in1.5 mm 0.00 in0.0 mm 0.39 in9.9 mm
07:00 PM 45.0°F7.2°C 43.3°F6.3°C 94% 3.8 mph ESE6.1 kmh ESE 6.7 mph10.8 kmh 29.55 in1000.7 mb 0.08 in2.0 mm 0.02 in0.5 mm 0.41 in10.4 mm
07:10 PM 45.1°F7.3°C 43.5°F6.4°C 94% 5.3 mph SE8.5 kmh SE 6.7 mph10.8 kmh 29.55 in1000.7 mb 0.06 in1.5 mm 0.00 in0.0 mm 0.41 in10.4 mm
07:20 PM 45.3°F7.4°C 43.7°F6.5°C 94% 3.0 mph SE4.8 kmh SE 5.4 mph8.7 kmh 29.55 in1000.7 mb 0.06 in1.5 mm 0.00 in0.0 mm 0.43 in10.9 mm
07:30 PM 45.5°F7.5°C 43.9°F6.6°C 94% 4.1 mph SSE6.6 kmh SSE 6.0 mph9.7 kmh 29.56 in1001.0 mb 0.08 in2.0 mm 0.12 in3.0 mm 0.45 in11.4 mm
07:40 PM 45.3°F7.4°C 43.7°F6.5°C 94% 4.5 mph SSE7.2 kmh SSE 10.7 mph17.2 kmh 29.56 in1001.0 mb 0.08 in2.0 mm 0.00 in0.0 mm 0.47 in11.9 mm
07:50 PM 45.1°F7.3°C 43.5°F6.4°C 94% 2.1 mph SE3.4 kmh SE 7.2 mph11.6 kmh 29.55 in1000.7 mb 0.08 in2.0 mm 0.00 in0.0 mm 0.47 in11.9 mm
08:00 PM 45.1°F7.3°C 43.5°F6.4°C 94% 3.0 mph SSE4.8 kmh SSE 7.2 mph11.6 kmh 29.55 in1000.7 mb 0.08 in2.0 mm 0.00 in0.0 mm 0.49 in12.4 mm
08:10 PM 45.7°F7.6°C 44.1°F6.7°C 94% 6.9 mph SE11.1 kmh SE 12.1 mph19.5 kmh 29.56 in1001.0 mb 0.10 in2.5 mm 0.12 in3.0 mm 0.51 in13.0 mm
08:20 PM 45.1°F7.3°C 43.5°F6.4°C 94% 2.6 mph SSE4.2 kmh SSE 11.2 mph18.0 kmh 29.56 in1001.0 mb 0.08 in2.0 mm 0.00 in0.0 mm 0.51 in13.0 mm
08:30 PM 45.7°F7.6°C 44.1°F6.7°C 94% 8.8 mph SSE14.2 kmh SSE 15.4 mph24.8 kmh 29.55 in1000.7 mb 0.08 in2.0 mm 0.00 in0.0 mm 0.53 in13.5 mm
08:40 PM 45.7°F7.6°C 44.1°F6.7°C 94% 6.2 mph S10.0 kmh S 15.4 mph24.8 kmh 29.56 in1001.0 mb 0.08 in2.0 mm 0.00 in0.0 mm 0.55 in14.0 mm
08:50 PM 45.7°F7.6°C 44.1°F6.7°C 94% 4.2 mph S6.8 kmh S 9.8 mph15.8 kmh 29.56 in1001.0 mb 0.08 in2.0 mm 0.00 in0.0 mm 0.55 in14.0 mm
09:00 PM 45.9°F7.7°C 44.0°F6.7°C 93% 4.8 mph SSW7.7 kmh SSW 9.6 mph15.4 kmh 29.56 in1001.0 mb 0.08 in2.0 mm 0.00 in0.0 mm 0.57 in14.5 mm
09:10 PM 46.2°F7.9°C 44.3°F6.8°C 93% 11.2 mph SSE18.0 kmh SSE 15.0 mph24.1 kmh 29.55 in1000.7 mb 0.06 in1.5 mm 0.00 in0.0 mm 0.57 in14.5 mm
09:20 PM 46.4°F8.0°C 44.2°F6.8°C 92% 10.4 mph SSE16.7 kmh SSE 15.0 mph24.1 kmh 29.55 in1000.7 mb 0.08 in2.0 mm 0.12 in3.0 mm 0.59 in15.0 mm
09:30 PM 45.7°F7.6°C 43.5°F6.4°C 92% 5.0 mph SSE8.0 kmh SSE 9.6 mph15.4 kmh 29.55 in1000.7 mb 0.08 in2.0 mm 0.00 in0.0 mm 0.61 in15.5 mm
09:40 PM 45.7°F7.6°C 43.5°F6.4°C 92% 2.5 mph SE4.0 kmh SE 6.3 mph10.1 kmh 29.55 in1000.7 mb 0.06 in1.5 mm 0.00 in0.0 mm 0.61 in15.5 mm
09:50 PM 46.0°F7.8°C 43.8°F6.6°C 92% 3.9 mph SE6.3 kmh SE 7.6 mph12.2 kmh 29.55 in1000.7 mb 0.08 in2.0 mm 0.12 in3.0 mm 0.63 in16.0 mm
10:00 PM 46.0°F7.8°C 43.8°F6.6°C 92% 4.1 mph SE6.6 kmh SE 8.5 mph13.7 kmh 29.55 in1000.7 mb 0.06 in1.5 mm 0.00 in0.0 mm 0.63 in16.0 mm
10:10 PM 46.2°F7.9°C 44.0°F6.7°C 92% 7.3 mph S11.7 kmh S 10.7 mph17.2 kmh 29.54 in1000.3 mb 0.06 in1.5 mm 0.00 in0.0 mm 0.63 in16.0 mm
10:20 PM 46.2°F7.9°C 44.0°F6.7°C 92% 9.7 mph SSE15.6 kmh SSE 16.3 mph26.2 kmh 29.54 in1000.3 mb 0.08 in2.0 mm 0.12 in3.0 mm 0.67 in17.0 mm
10:30 PM 45.7°F7.6°C 43.5°F6.4°C 92% 7.6 mph SSE12.2 kmh SSE 11.4 mph18.3 kmh 29.54 in1000.3 mb 0.06 in1.5 mm 0.00 in0.0 mm 0.67 in17.0 mm
10:40 PM 45.7°F7.6°C 43.5°F6.4°C 92% 7.3 mph S11.7 kmh S 10.7 mph17.2 kmh 29.54 in1000.3 mb 0.08 in2.0 mm 0.12 in3.0 mm 0.69 in17.5 mm
10:50 PM 46.0°F7.8°C 43.8°F6.6°C 92% 12.2 mph S19.6 kmh S 15.0 mph24.1 kmh 29.54 in1000.3 mb 0.08 in2.0 mm 0.00 in0.0 mm 0.71 in18.0 mm
11:00 PM 45.7°F7.6°C 43.5°F6.4°C 92% 8.0 mph SSE12.9 kmh SSE 15.2 mph24.5 kmh 29.53 in1000.0 mb 0.10 in2.5 mm 0.02 in0.5 mm 0.73 in18.5 mm
11:10 PM 45.7°F7.6°C 43.5°F6.4°C 92% 7.0 mph SSE11.3 kmh SSE 17.2 mph27.7 kmh 29.53 in1000.0 mb 0.10 in2.5 mm 0.00 in0.0 mm 0.73 in18.5 mm
11:20 PM 45.7°F7.6°C 43.2°F6.2°C 91% 13.7 mph S22.0 kmh S 17.2 mph27.7 kmh 29.54 in1000.3 mb 0.08 in2.0 mm 0.00 in0.0 mm 0.75 in19.1 mm
11:30 PM 45.5°F7.5°C 43.3°F6.3°C 92% 7.0 mph S11.3 kmh S 13.0 mph20.9 kmh 29.53 in1000.0 mb 0.08 in2.0 mm 0.00 in0.0 mm 0.75 in19.1 mm
11:40 PM 45.7°F7.6°C 43.5°F6.4°C 92% 6.1 mph S9.8 kmh S 8.9 mph14.3 kmh 29.53 in1000.0 mb 0.08 in2.0 mm 0.00 in0.0 mm 0.78 in19.8 mm
11:50 PM 45.7°F7.6°C 43.5°F6.4°C 92% 6.9 mph S11.1 kmh S 9.8 mph15.8 kmh 29.54 in1000.3 mb 0.08 in2.0 mm 0.00 in0.0 mm 0.80 in20.3 mm